LDPL/PUY METAR and TAF weather

Enter ICAO airport designator
Station Type Date Time Source
LDPL METAR 2019/06/26 05:30 UTC NOAA

LDPL 260530Z 03007KT CAVOK 27/19 Q1021 NOSIG


Station Type Date Time Source
LDPL Decoded METAR 2019/06/26 05:30 UTC NOAA

Pula Aerodrome, Croatia (LDPL) 45-54N 013-55E 63M
Jun 26, 2019 - 01:30 AM EDT / 2019.06.26 0530 UTC
Wind: from the NNE (030 degrees) at 8 MPH (7 KT):0
Visibility: greater than 7 mile(s):0
Temperature: 80 F (27 C)
Dew Point: 66 F (19 C)
Relative Humidity: 61%
Pressure (altimeter): 30.15 in. Hg (1021 hPa)
ob: LDPL 260530Z 03007KT CAVOK 27/19 Q1021 NOSIG
cycle: 5

Station Type Date Time Source
LDPL TAF 2019/06/26 06:00 UTC NOAA

TAF COR LDPL 260551Z 2606/2706 06008KT CAVOK TX32/2613Z TN24/2703Z
BECMG 2611/2613 28008KT
BECMG 2617/2619 06008KT

Example: see airport list